Time;durP1;ratioP1;P1;durP2;ratioP2;P2;SDS_P1;SDS_P2;PMS_P1;PMS_P2;Temp;Humidity;BMP_temperature;BMP_pressure;BME280_temperature;BME280_humidity;BME280_pressure;Samples;Min_cycle;Max_cycle;Signal;HPM_P1;HPM_P2
2023/01/24 00:00:56;;;;;;;4.82;2.05;;;;;;;4.42;98.47;95586.28;5109377;28;20266;-78
2023/01/24 00:03:23;;;;;;;2.63;1.73;;;;;;;4.45;98.64;95599.16;5109764;28;20193;-79
2023/01/24 00:05:50;;;;;;;4.65;1.83;;;;;;;4.39;98.59;95581.44;5109318;28;20376;-79
2023/01/24 00:08:19;;;;;;;3.63;2.20;;;;;;;4.41;98.39;95584.66;5095648;28;20746;-77
2023/01/24 00:10:46;;;;;;;2.05;1.45;;;;;;;4.45;98.54;95593.81;5109420;28;20590;-78
2023/01/24 00:13:14;;;;;;;2.30;1.52;;;;;;;4.49;98.50;95600.25;5109340;28;20251;-77
2023/01/24 00:15:43;;;;;;;3.75;2.28;;;;;;;4.49;98.51;95597.59;5108868;28;20592;-79
2023/01/24 00:18:10;;;;;;;2.58;1.60;;;;;;;4.47;98.14;95594.34;5109484;28;20718;-76
2023/01/24 00:20:37;;;;;;;2.38;1.65;;;;;;;4.44;97.95;95589.50;5109445;28;20694;-78
2023/01/24 00:23:03;;;;;;;3.65;1.52;;;;;;;4.52;97.11;95591.66;5109752;28;20254;-79
2023/01/24 00:25:30;;;;;;;4.57;2.25;;;;;;;4.48;96.61;95593.28;5095577;28;20275;-78
2023/01/24 00:27:57;;;;;;;3.80;2.53;;;;;;;4.58;96.08;95598.66;5109680;28;20201;-79
2023/01/24 00:30:24;;;;;;;4.28;2.33;;;;;;;4.49;95.01;95590.34;5108341;28;20209;-77
2023/01/24 00:32:52;;;;;;;3.38;1.80;;;;;;;4.48;95.31;95604.00;5108380;28;20634;-77
2023/01/24 00:35:18;;;;;;;3.20;2.00;;;;;;;4.45;95.05;95586.56;5105595;28;20291;-78
2023/01/24 00:37:45;;;;;;;4.93;2.15;;;;;;;4.45;95.04;95585.75;5104953;28;20946;-78
2023/01/24 00:40:12;;;;;;;5.03;1.67;;;;;;;4.49;94.90;95597.59;5108056;28;20213;-77
2023/01/24 00:42:39;;;;;;;1.77;1.40;;;;;;;4.47;94.43;95599.72;5105313;28;20209;-78
2023/01/24 00:45:07;;;;;;;2.42;1.30;;;;;;;4.51;94.62;95592.75;5108369;28;20193;-77
2023/01/24 00:47:34;;;;;;;2.75;1.65;;;;;;;4.48;94.78;95595.97;5108284;28;20602;-78
2023/01/24 00:50:02;;;;;;;2.83;1.77;;;;;;;4.45;94.59;95596.50;5107261;28;20910;-77
2023/01/24 00:52:28;;;;;;;3.53;2.10;;;;;;;4.45;94.30;95591.13;5108712;28;20217;-79
2023/01/24 00:54:55;;;;;;;4.13;1.92;;;;;;;4.43;94.26;95590.56;5108935;28;20259;-76
2023/01/24 00:57:24;;;;;;;2.95;1.77;;;;;;;4.43;94.32;95604.00;5109005;28;20210;-76
2023/01/24 00:59:50;;;;;;;5.50;2.38;;;;;;;4.41;94.35;95603.44;5108171;28;20286;-78
2023/01/24 01:02:17;;;;;;;1.83;1.35;;;;;;;4.28;94.82;95584.09;5108197;28;20202;-78
2023/01/24 01:04:44;;;;;;;5.03;2.10;;;;;;;4.37;94.69;95602.38;5108547;28;20202;-77
2023/01/24 01:07:12;;;;;;;2.72;1.77;;;;;;;4.32;95.05;95605.84;5108590;28;20266;-78
2023/01/24 01:09:39;;;;;;;5.65;2.33;;;;;;;4.29;95.45;95603.69;5108512;28;20688;-77
2023/01/24 01:12:06;;;;;;;6.43;2.38;;;;;;;4.25;95.14;95606.09;5108445;28;20236;-77
2023/01/24 01:14:33;;;;;;;3.25;1.52;;;;;;;4.33;95.70;95606.66;5108712;28;20255;-78
2023/01/24 01:17:00;;;;;;;2.97;1.38;;;;;;;4.29;95.57;95611.72;5108530;28;20206;-78
2023/01/24 01:19:26;;;;;;;8.88;2.35;;;;;;;4.26;96.15;95602.34;5108468;28;20251;-78
2023/01/24 01:21:53;;;;;;;3.53;1.70;;;;;;;4.26;95.62;95605.00;5108769;28;20205;-76
2023/01/24 01:24:21;;;;;;;4.45;1.80;;;;;;;4.28;95.28;95608.25;5108764;28;20247;-77
2023/01/24 01:26:48;;;;;;;3.75;2.38;;;;;;;4.26;95.58;95610.38;5107497;28;20205;-77
2023/01/24 01:29:15;;;;;;;4.22;2.22;;;;;;;4.34;95.18;95605.59;5107835;28;20197;-78
2023/01/24 01:31:41;;;;;;;4.50;2.58;;;;;;;4.27;94.84;95601.25;5107782;28;20229;-77
2023/01/24 01:34:09;;;;;;;3.28;2.22;;;;;;;4.30;94.76;95616.03;5107794;28;20202;-77
2023/01/24 01:36:36;;;;;;;6.53;2.53;;;;;;;4.22;95.30;95609.31;5108391;28;20649;-77
2023/01/24 01:39:03;;;;;;;3.85;2.40;;;;;;;4.22;94.90;95609.31;5108063;28;20781;-78
2023/01/24 01:41:31;;;;;;;4.00;2.33;;;;;;;4.16;94.71;95605.00;5109104;28;20266;-77
2023/01/24 01:46:44;;;;;;;4.50;2.67;;;;;;;4.16;95.01;95610.34;5105829;28;20205;-79
2023/01/24 01:49:20;;;;;;;7.28;3.97;;;;;;;4.19;95.19;95604.47;5087359;28;20206;-77
2023/01/24 01:51:51;;;;;;;4.45;2.13;;;;;;;4.18;95.54;95602.84;5109248;28;20894;-77
2023/01/24 01:54:22;;;;;;;3.95;2.67;;;;;;;4.14;95.39;95595.59;5111367;28;20201;-77
2023/01/24 01:56:54;;;;;;;8.95;4.22;;;;;;;4.15;95.78;95600.69;5111930;28;20266;-77
2023/01/24 01:59:25;;;;;;;3.70;2.58;;;;;;;4.16;95.53;95598.81;5111883;28;20263;-77
2023/01/24 02:01:56;;;;;;;6.15;3.03;;;;;;;4.11;95.60;95606.84;5099265;28;20201;-77
2023/01/24 02:04:26;;;;;;;6.78;2.85;;;;;;;4.10;95.46;95600.66;5111076;28;20652;-78
2023/01/24 02:06:57;;;;;;;4.47;1.92;;;;;;;4.04;95.73;95600.91;5111298;28;20259;-76
2023/01/24 02:09:27;;;;;;;2.63;2.00;;;;;;;3.99;95.80;95604.38;5111120;28;20202;-78
2023/01/24 02:12:01;;;;;;;6.15;3.47;;;;;;;4.03;95.86;95605.47;5111487;28;20233;-77
2023/01/24 02:17:17;;;;;;;2.88;1.80;;;;;;;3.99;96.02;95599.03;5111308;28;20204;-76
2023/01/24 02:19:57;;;;;;;4.80;2.67;;;;;;;4.03;96.20;95593.94;5090902;28;20202;-76
2023/01/24 02:22:32;;;;;;;4.50;2.13;;;;;;;4.00;95.66;95595.28;5106761;28;20708;-78
2023/01/24 02:25:07;;;;;;;5.72;2.75;;;;;;;4.02;95.79;95595.00;5111688;28;20200;-76
2023/01/24 02:27:35;;;;;;;3.35;2.00;;;;;;;4.02;95.58;95598.50;5111634;28;20200;-76
2023/01/24 02:30:02;;;;;;;3.13;2.05;;;;;;;3.95;95.54;95592.59;5111268;28;20201;-76
2023/01/24 02:32:28;;;;;;;4.13;2.17;;;;;;;3.98;95.82;95602.75;5111306;28;20275;-77
2023/01/24 02:34:55;;;;;;;4.63;1.85;;;;;;;3.94;96.05;95596.34;5110918;28;20283;-76
2023/01/24 02:37:22;;;;;;;2.53;1.58;;;;;;;3.92;96.09;95593.09;5110930;28;20326;-76
2023/01/24 02:39:54;;;;;;;2.35;1.67;;;;;;;3.92;96.14;95593.91;5111101;28;20536;-76
2023/01/24 02:42:24;;;;;;;2.17;1.95;;;;;;;3.89;96.34;95604.34;5111065;28;20205;-77
2023/01/24 02:45:00;;;;;;;2.72;1.67;;;;;;;3.88;96.41;95592.00;5110884;28;20206;-76
2023/01/24 02:47:32;;;;;;;2.05;1.20;;;;;;;3.89;96.05;95604.34;5097974;28;20605;-77
2023/01/24 02:49:59;;;;;;;4.82;2.03;;;;;;;3.87;96.34;95595.75;5111075;28;20200;-77
2023/01/24 02:55:10;;;;;;;2.30;1.83;;;;;;;3.83;96.36;95600.00;5111065;28;20331;-78
2023/01/24 03:00:23;;;;;;;2.50;1.45;;;;;;;3.89;96.47;95596.31;5098931;28;20295;-78
2023/01/24 03:02:49;;;;;;;3.95;1.63;;;;;;;3.92;96.35;95587.75;5110227;28;20620;-76
2023/01/24 03:05:16;;;;;;;2.47;1.35;;;;;;;3.79;96.21;95601.63;5101138;28;20214;-78
2023/01/24 03:07:44;;;;;;;1.65;1.33;;;;;;;3.80;96.72;95590.66;5105771;28;20258;-76
2023/01/24 03:10:12;;;;;;;3.38;2.22;;;;;;;3.76;96.88;95594.09;5110719;28;20205;-78
2023/01/24 03:34:48;;;;;;;1.95;1.42;;;;;;;3.52;98.11;95596.38;5110165;28;20337;-78
2023/01/24 03:37:16;;;;;;;5.70;2.35;;;;;;;3.46;98.47;95595.53;5109736;28;20201;-78
2023/01/24 03:39:58;;;;;;;3.67;2.20;;;;;;;3.47;98.62;95591.78;5110178;28;20217;-76
2023/01/24 03:42:26;;;;;;;0.88;0.88;;;;;;;3.52;98.74;95594.53;5097024;28;20266;-78
2023/01/24 03:44:54;;;;;;;4.25;1.70;;;;;;;3.42;98.55;95594.44;5110423;28;20201;-77
2023/01/24 03:47:22;;;;;;;1.95;1.52;;;;;;;3.44;98.87;95586.94;5110062;28;20297;-76
2023/01/24 03:52:33;;;;;;;2.90;1.98;;;;;;;3.41;98.79;95582.13;5089111;28;20244;-76
2023/01/24 03:55:01;;;;;;;3.03;1.52;;;;;;;3.46;98.96;95590.19;5107588;28;20717;-74
2023/01/24 03:57:29;;;;;;;1.88;1.08;;;;;;;3.46;99.02;95584.81;5109546;28;20197;-76
2023/01/24 03:59:56;;;;;;;3.70;2.28;;;;;;;3.39;99.06;95584.25;5104602;28;20667;-78
2023/01/24 04:02:24;;;;;;;6.30;1.70;;;;;;;3.40;98.98;95591.25;5100588;28;20282;-77
2023/01/24 04:07:43;;;;;;;2.45;1.40;;;;;;;3.40;99.22;95577.84;5071791;28;20208;-77
2023/01/24 04:10:11;;;;;;;2.05;1.58;;;;;;;3.40;99.25;95583.19;5109387;28;20597;-77
2023/01/24 04:12:38;;;;;;;2.85;1.55;;;;;;;3.41;98.82;95575.97;5109204;28;20629;-78
2023/01/24 04:15:06;;;;;;;8.55;4.55;;;;;;;3.34;98.71;95573.50;5108803;28;20201;-77
2023/01/24 04:17:34;;;;;;;5.75;3.78;;;;;;;3.34;98.81;95567.34;5109744;28;20610;-75
2023/01/24 04:20:01;;;;;;;5.40;4.03;;;;;;;3.34;98.51;95581.53;5109979;28;20201;-78
2023/01/24 04:22:27;;;;;;;5.13;1.67;;;;;;;3.28;98.67;95577.22;5109957;28;20259;-79
2023/01/24 04:24:54;;;;;;;3.63;1.45;;;;;;;3.30;98.45;95577.75;5109699;28;20615;-76
2023/01/24 04:27:21;;;;;;;4.15;2.33;;;;;;;3.33;98.48;95579.94;5109107;28;20696;-77
2023/01/24 04:29:48;;;;;;;1.52;1.33;;;;;;;3.37;98.53;95581.03;5108976;28;20251;-75
2023/01/24 04:32:15;;;;;;;4.00;1.88;;;;;;;3.33;98.13;95574.56;5108180;28;20255;-76
2023/01/24 04:34:43;;;;;;;7.50;2.05;;;;;;;3.40;97.78;95580.53;5108281;28;20236;-77
2023/01/24 04:37:09;;;;;;;2.05;1.48;;;;;;;3.36;97.37;95568.72;5108557;28;20258;-78
2023/01/24 04:39:36;;;;;;;3.05;1.75;;;;;;;3.40;96.88;95569.81;5108741;28;20230;-77
2023/01/24 04:42:03;;;;;;;4.70;1.50;;;;;;;3.44;96.02;95578.91;5108905;28;20194;-78
2023/01/24 04:44:30;;;;;;;2.00;1.55;;;;;;;3.44;96.15;95578.91;5108728;28;20197;-77
2023/01/24 04:46:56;;;;;;;3.35;1.60;;;;;;;3.47;95.83;95580.28;5108834;28;20201;-77
2023/01/24 04:49:23;;;;;;;2.20;1.23;;;;;;;3.49;95.70;95578.97;5108338;28;20193;-77
2023/01/24 04:51:52;;;;;;;2.38;1.95;;;;;;;3.41;96.38;95592.84;5108841;28;20201;-76
2023/01/24 04:54:18;;;;;;;3.55;1.95;;;;;;;3.43;95.84;95590.69;5108465;28;20714;-77
2023/01/24 04:56:45;;;;;;;1.42;1.33;;;;;;;3.41;96.00;95584.81;5108641;28;20210;-76
2023/01/24 04:59:13;;;;;;;3.08;1.90;;;;;;;3.29;96.61;95584.19;5108925;28;20325;-76
2023/01/24 05:01:40;;;;;;;2.83;1.85;;;;;;;3.30;97.45;95601.84;5108530;28;20193;-78
2023/01/24 05:04:07;;;;;;;2.10;1.90;;;;;;;3.19;97.94;95597.50;5108760;28;20278;-76
2023/01/24 05:06:35;;;;;;;2.10;1.65;;;;;;;3.17;98.34;95596.94;5109001;28;20206;-76
2023/01/24 05:09:04;;;;;;;3.45;2.17;;;;;;;3.22;98.39;95600.47;5108539;28;20194;-78
2023/01/24 05:11:31;;;;;;;4.63;2.90;;;;;;;3.13;98.06;95611.94;5093781;28;20227;-75
2023/01/24 05:13:58;;;;;;;6.07;3.28;;;;;;;3.11;98.35;95608.69;5107777;28;20479;-79
2023/01/24 05:16:24;;;;;;;5.60;2.17;;;;;;;3.10;98.36;95607.09;5094756;28;20205;-77
2023/01/24 05:18:51;;;;;;;3.50;2.50;;;;;;;3.14;98.17;95608.19;5108541;28;20244;-81
2023/01/24 05:21:19;;;;;;;7.72;2.92;;;;;;;3.19;98.16;95613.56;5108480;28;20725;-76
2023/01/24 05:23:50;;;;;;;3.60;2.30;;;;;;;3.11;98.08;95619.41;5108732;28;20284;-79
2023/01/24 05:26:18;;;;;;;2.88;2.15;;;;;;;3.14;98.44;95629.59;5112213;28;20803;-80
2023/01/24 05:28:45;;;;;;;4.07;2.55;;;;;;;3.08;98.54;95634.09;5112967;28;20205;-78
2023/01/24 05:31:12;;;;;;;3.70;2.10;;;;;;;3.07;98.73;95643.19;5113032;28;20250;-79
2023/01/24 05:33:38;;;;;;;4.85;2.85;;;;;;;3.10;98.80;95647.22;5112471;28;20289;-80
2023/01/24 05:36:08;;;;;;;1.25;1.00;;;;;;;3.11;98.79;95641.63;5111987;28;20777;-77
2023/01/24 05:38:35;;;;;;;2.38;1.92;;;;;;;3.08;98.81;95641.31;5112070;28;20217;-79
2023/01/24 05:41:03;;;;;;;5.88;2.90;;;;;;;3.12;98.79;95642.44;5111992;28;20201;-78
2023/01/24 05:43:32;;;;;;;3.83;2.15;;;;;;;3.13;98.65;95639.50;5112258;28;20205;-80
2023/01/24 05:46:00;;;;;;;6.82;3.05;;;;;;;3.17;99.22;95650.50;5112776;28;20202;-79
2023/01/24 05:48:27;;;;;;;5.10;2.97;;;;;;;3.23;98.16;95654.84;5112634;28;20258;-79
2023/01/24 05:50:58;;;;;;;4.75;2.97;;;;;;;3.11;98.41;95657.69;5112932;28;20197;-80
2023/01/24 05:53:25;;;;;;;3.60;2.47;;;;;;;3.11;98.42;95660.38;5112421;28;20328;-80
2023/01/24 05:55:56;;;;;;;3.35;2.03;;;;;;;3.11;98.60;95656.88;5112245;28;20204;-79
2023/01/24 05:58:22;;;;;;;2.65;1.88;;;;;;;3.12;98.12;95663.84;5112000;28;20688;-79
2023/01/24 06:00:50;;;;;;;3.95;2.50;;;;;;;3.07;98.33;95669.16;5112697;28;20205;-79
2023/01/24 06:03:17;;;;;;;3.17;1.70;;;;;;;3.16;98.10;95665.75;5112247;28;20209;-79
2023/01/24 06:05:46;;;;;;;1.42;1.05;;;;;;;3.15;98.17;95668.66;5112096;28;20255;-79
2023/01/24 06:08:13;;;;;;;20.77;1.88;;;;;;;3.15;97.60;95682.06;5112279;28;20249;-78
2023/01/24 06:10:40;;;;;;;2.75;2.45;;;;;;;3.07;97.54;95677.19;5112495;28;20259;-78
2023/01/24 06:13:07;;;;;;;3.55;1.40;;;;;;;3.16;97.15;95678.31;5111571;28;20229;-77
2023/01/24 06:15:34;;;;;;;2.95;1.55;;;;;;;3.08;97.08;95681.47;5111811;28;20723;-80
2023/01/24 06:18:02;;;;;;;5.18;2.03;;;;;;;3.10;97.36;95676.69;5112012;28;20201;-80
2023/01/24 06:20:29;;;;;;;3.47;2.53;;;;;;;3.04;97.90;95678.50;5112533;28;20201;-80
2023/01/24 06:23:00;;;;;;;5.40;3.00;;;;;;;2.83;99.58;95682.84;5112038;28;20205;-79
2023/01/24 06:25:27;;;;;;;6.97;3.75;;;;;;;2.69;100.00;95691.53;5112101;28;20202;-80
2023/01/24 06:27:54;;;;;;;3.30;2.15;;;;;;;2.55;100.00;95688.44;5111744;28;20262;-80
2023/01/24 06:30:22;;;;;;;4.05;2.17;;;;;;;2.52;100.00;95696.16;5112344;28;20198;-82
2023/01/24 06:33:07;;;;;;;10.77;6.28;;;;;;;2.52;100.00;95701.50;5112187;28;20202;-81
2023/01/24 06:35:43;;;;;;;12.07;5.82;;;;;;;2.41;100.00;95709.41;5111797;28;20229;-84
2023/01/24 06:38:20;;;;;;;9.27;4.80;;;;;;;2.34;100.00;95699.94;5110575;28;20653;-82
2023/01/24 06:40:47;;;;;;;11.95;6.78;;;;;;;2.35;100.00;95706.91;5090973;28;20664;-82
2023/01/24 06:43:14;;;;;;;9.90;5.68;;;;;;;2.34;100.00;95699.94;5104815;28;20251;-78
2023/01/24 06:45:41;;;;;;;5.72;2.08;;;;;;;2.33;100.00;95725.06;5111658;28;20259;-77
2023/01/24 06:48:09;;;;;;;11.65;5.63;;;;;;;2.20;100.00;95710.22;5111453;28;20553;-77
2023/01/24 06:50:36;;;;;;;11.00;6.47;;;;;;;2.12;100.00;95716.81;5103700;28;20194;-78
2023/01/24 06:53:03;;;;;;;11.18;6.35;;;;;;;2.10;100.00;95731.47;5092496;28;20194;-78
2023/01/24 06:55:30;;;;;;;9.27;5.53;;;;;;;2.06;100.00;95725.78;5111427;28;20213;-78
2023/01/24 06:57:57;;;;;;;13.25;7.60;;;;;;;2.03;100.00;95720.16;5111286;28;20194;-78
2023/01/24 07:00:25;;;;;;;8.95;5.78;;;;;;;2.05;100.00;95718.84;5110426;28;20201;-80
2023/01/24 07:02:58;;;;;;;10.23;5.45;;;;;;;2.03;100.00;95731.66;5110736;28;20201;-78
2023/01/24 07:05:26;;;;;;;9.60;5.82;;;;;;;2.05;100.00;95724.19;5110589;28;21042;-77
2023/01/24 07:07:53;;;;;;;1.85;1.52;;;;;;;2.10;100.00;95724.25;5111161;28;20255;-77
2023/01/24 07:10:20;;;;;;;4.90;2.55;;;;;;;2.06;100.00;95724.97;5111236;28;20346;-77
2023/01/24 07:12:48;;;;;;;6.25;2.83;;;;;;;2.06;100.00;95735.69;5110692;28;20841;-77
2023/01/24 07:15:14;;;;;;;5.05;3.00;;;;;;;2.10;100.00;95721.59;5110751;28;20594;-78
2023/01/24 07:17:42;;;;;;;3.58;1.92;;;;;;;2.11;100.00;95728.56;5110410;28;20198;-77
2023/01/24 07:20:11;;;;;;;3.10;1.83;;;;;;;2.09;100.00;95733.31;5110723;28;20285;-76
2023/01/24 07:22:41;;;;;;;3.55;2.35;;;;;;;2.10;100.00;95729.59;5110648;28;20265;-77
2023/01/24 07:25:14;;;;;;;3.15;2.05;;;;;;;2.07;100.00;95738.09;5110909;28;20204;-75
2023/01/24 07:27:42;;;;;;;2.50;1.55;;;;;;;2.11;100.00;95741.91;5110563;28;20672;-74
2023/01/24 07:30:09;;;;;;;3.25;2.10;;;;;;;2.07;100.00;95743.44;5110631;28;20205;-76
2023/01/24 07:32:36;;;;;;;6.15;2.63;;;;;;;2.08;100.00;95750.41;5110872;28;20267;-78
2023/01/24 07:35:03;;;;;;;4.50;2.38;;;;;;;2.11;100.00;95744.59;5109447;28;20278;-76
2023/01/24 07:37:30;;;;;;;2.65;1.63;;;;;;;2.09;100.00;95745.88;5109451;28;20201;-76
2023/01/24 07:39:58;;;;;;;4.05;2.15;;;;;;;2.08;100.00;95750.41;5110549;28;20229;-77
2023/01/24 07:42:25;;;;;;;3.95;2.08;;;;;;;1.99;100.00;95751.91;5108866;28;20194;-77
2023/01/24 07:44:53;;;;;;;4.03;2.38;;;;;;;2.01;100.00;95748.97;5109255;28;20741;-77
2023/01/24 07:47:20;;;;;;;14.68;5.97;;;;;;;1.86;100.00;95757.59;5109605;28;20610;-77
2023/01/24 07:49:47;;;;;;;12.35;6.90;;;;;;;1.93;100.00;95763.56;5110247;28;20251;-78
2023/01/24 07:52:13;;;;;;;9.85;5.53;;;;;;;1.95;100.00;95757.97;5109674;28;20598;-77
2023/01/24 07:54:40;;;;;;;11.05;5.82;;;;;;;1.91;100.00;95757.69;5110137;28;20222;-77
2023/01/24 07:57:08;;;;;;;9.70;5.00;;;;;;;1.93;100.00;95762.75;5109724;28;20600;-76
2023/01/24 07:59:35;;;;;;;9.77;5.22;;;;;;;1.87;100.00;95769.91;5110114;28;20292;-75
2023/01/24 08:02:02;;;;;;;10.32;6.20;;;;;;;1.87;100.00;95775.25;5110051;28;20729;-76
2023/01/24 08:04:29;;;;;;;6.20;2.53;;;;;;;1.84;100.00;95775.72;5096136;28;20229;-77
2023/01/24 08:09:39;;;;;;;3.33;1.73;;;;;;;1.85;100.00;95772.00;5109356;28;20204;-75
2023/01/24 08:12:08;;;;;;;3.42;1.55;;;;;;;1.86;100.00;95778.97;5109614;28;20670;-77
2023/01/24 08:14:34;;;;;;;3.78;1.77;;;;;;;1.76;100.00;95792.97;5109768;28;20198;-76
2023/01/24 08:17:01;;;;;;;6.32;4.13;;;;;;;1.73;100.00;95768.63;5109325;28;20231;-76
2023/01/24 08:19:28;;;;;;;1.85;1.08;;;;;;;1.83;100.00;95768.75;5109193;28;20201;-77
2023/01/24 08:21:55;;;;;;;3.40;1.60;;;;;;;1.92;100.00;95767.28;5109303;28;20216;-78
2023/01/24 08:24:21;;;;;;;2.10;1.55;;;;;;;1.96;100.00;95768.41;5109378;28;20761;-78
2023/01/24 08:26:48;;;;;;;9.60;4.40;;;;;;;2.06;100.00;95771.22;5109713;28;20202;-77
2023/01/24 08:29:17;;;;;;;6.57;4.60;;;;;;;2.08;100.00;95771.78;5110049;28;20344;-75
2023/01/24 08:31:43;;;;;;;8.35;4.63;;;;;;;2.07;100.00;95775.53;5110202;28;20201;-77
2023/01/24 08:34:10;;;;;;;4.10;1.60;;;;;;;1.98;100.00;95782.34;5109424;28;20247;-79
2023/01/24 08:36:37;;;;;;;1.77;1.27;;;;;;;1.98;100.00;95773.53;5109806;28;20206;-78
2023/01/24 08:39:04;;;;;;;2.03;1.15;;;;;;;1.94;100.00;95786.53;5109226;28;20230;-77
2023/01/24 08:41:31;;;;;;;6.70;3.75;;;;;;;1.79;100.00;95772.97;5108605;28;20247;-78
2023/01/24 08:43:58;;;;;;;10.85;5.20;;;;;;;1.98;100.00;95786.88;5108895;28;20213;-78
2023/01/24 08:46:26;;;;;;;7.55;4.15;;;;;;;2.06;100.00;95779.25;5109234;28;20251;-78
2023/01/24 08:48:53;;;;;;;9.13;4.30;;;;;;;2.15;100.00;95776.97;5109099;28;20205;-77
2023/01/24 08:51:20;;;;;;;12.27;5.97;;;;;;;2.23;100.00;95779.22;5095732;28;20265;-78
2023/01/24 08:53:47;;;;;;;7.18;4.07;;;;;;;2.39;100.00;95785.59;5108938;28;20808;-78
2023/01/24 08:56:14;;;;;;;8.43;5.47;;;;;;;2.46;100.00;95783.53;5109208;28;20572;-78
2023/01/24 08:58:40;;;;;;;9.00;5.53;;;;;;;2.55;100.00;95774.03;5109002;28;20194;-77
2023/01/24 09:01:07;;;;;;;9.00;5.40;;;;;;;2.53;100.00;95778.81;5108784;28;20205;-77
2023/01/24 09:03:36;;;;;;;3.85;1.92;;;;;;;2.57;100.00;95779.94;5108594;28;20206;-77
2023/01/24 09:06:03;;;;;;;2.33;1.30;;;;;;;2.72;100.00;95776.66;5108719;28;20254;-76
2023/01/24 09:08:31;;;;;;;2.45;1.73;;;;;;;2.65;100.00;95776.81;5108742;28;20671;-78
2023/01/24 09:10:58;;;;;;;4.53;1.88;;;;;;;2.62;100.00;95774.63;5108960;28;20196;-78
2023/01/24 09:13:25;;;;;;;2.40;2.08;;;;;;;2.63;100.00;95773.56;5108876;28;20244;-79
2023/01/24 09:15:52;;;;;;;5.32;2.10;;;;;;;2.66;100.00;95772.28;5109036;28;20255;-78
2023/01/24 09:18:25;;;;;;;2.65;1.40;;;;;;;2.67;100.00;95772.03;5109241;28;20193;-78
2023/01/24 09:20:53;;;;;;;3.50;2.30;;;;;;;2.83;100.00;95776.50;5109063;28;20206;-78
2023/01/24 09:23:20;;;;;;;4.20;1.75;;;;;;;2.71;100.00;95786.53;5108982;28;20542;-78
2023/01/24 09:25:51;;;;;;;4.28;2.25;;;;;;;2.37;100.00;95790.38;5108337;28;20237;-76
2023/01/24 09:28:19;;;;;;;3.40;2.05;;;;;;;2.39;100.00;95769.53;5108818;28;20566;-77
2023/01/24 09:30:47;;;;;;;2.53;2.08;;;;;;;2.40;100.00;95773.84;5108531;28;20216;-77
2023/01/24 09:33:14;;;;;;;3.38;1.88;;;;;;;2.50;100.00;95784.66;5109061;28;20202;-78
2023/01/24 09:35:41;;;;;;;7.20;4.10;;;;;;;2.58;100.00;95778.88;5108892;28;20290;-79
2023/01/24 09:38:09;;;;;;;2.10;1.65;;;;;;;2.67;100.00;95772.03;5108733;28;20221;-77
2023/01/24 09:40:43;;;;;;;3.28;2.22;;;;;;;2.72;100.00;95768.63;5109163;28;20205;-79
2023/01/24 09:43:16;;;;;;;1.30;1.20;;;;;;;2.72;100.00;95772.09;5108416;28;20251;-78
2023/01/24 09:45:50;;;;;;;1.52;1.00;;;;;;;2.72;100.00;95761.41;5108779;28;20316;-79
2023/01/24 09:48:17;;;;;;;1.55;1.40;;;;;;;2.73;100.00;95765.66;5108752;28;20589;-79
2023/01/24 09:50:48;;;;;;;4.60;2.30;;;;;;;2.76;100.00;95772.38;5099323;28;20606;-80
2023/01/24 09:53:22;;;;;;;2.75;1.92;;;;;;;2.73;100.00;95771.00;5091642;28;20880;-78
2023/01/24 09:55:49;;;;;;;2.70;1.55;;;;;;;2.56;100.00;95767.63;5108546;28;20202;-79
2023/01/24 09:58:30;;;;;;;2.85;2.28;;;;;;;2.54;100.00;95769.72;5108480;28;20198;-79
2023/01/24 10:01:00;;;;;;;4.57;2.72;;;;;;;2.55;100.00;95762.53;5108709;28;20202;-79
2023/01/24 10:03:28;;;;;;;4.15;2.28;;;;;;;2.78;100.00;95765.72;5108823;28;20258;-80
2023/01/24 10:05:57;;;;;;;3.85;1.70;;;;;;;2.83;100.00;95752.44;5109402;28;20226;-81
2023/01/24 10:08:35;;;;;;;1.65;1.35;;;;;;;2.71;100.00;95756.31;5108692;28;20668;-80
2023/01/24 10:11:20;;;;;;;3.03;1.65;;;;;;;2.78;100.00;95763.06;5108737;28;20285;-80
2023/01/24 10:14:20;;;;;;;1.95;1.33;;;;;;;2.96;100.00;95756.56;5112798;28;20218;-81
2023/01/24 10:17:07;;;;;;;2.60;1.38;;;;;;;2.93;100.00;95761.63;5096627;28;20205;-82
2023/01/24 10:19:52;;;;;;;1.85;1.25;;;;;;;2.57;100.00;95747.03;5100058;28;20280;-81
2023/01/24 10:22:36;;;;;;;1.90;1.40;;;;;;;2.43;100.00;95757.31;5112898;28;20205;-81
2023/01/24 10:25:11;;;;;;;4.13;2.42;;;;;;;2.67;100.00;95753.31;5112354;28;20293;-85
2023/01/24 10:27:43;;;;;;;3.38;1.63;;;;;;;2.70;100.00;95747.47;5112036;28;20668;-82
2023/01/24 10:30:17;;;;;;;2.05;1.02;;;;;;;2.62;100.00;95749.75;5112101;28;20205;-85
2023/01/24 10:32:47;;;;;;;0.95;0.88;;;;;;;2.72;100.00;95745.34;5112705;28;20204;-82
2023/01/24 10:35:18;;;;;;;1.00;0.90;;;;;;;2.61;100.00;95735.56;5112733;28;20242;-81
2023/01/24 10:37:49;;;;;;;1.38;0.82;;;;;;;2.56;100.00;95740.88;5111692;28;20641;-80
2023/01/24 10:40:18;;;;;;;1.17;0.85;;;;;;;2.62;100.00;95739.88;5112091;28;20202;-84
2023/01/24 10:42:45;;;;;;;1.95;1.15;;;;;;;2.65;100.00;95739.38;5112375;28;20193;-88
2023/01/24 10:45:36;;;;;;;2.58;1.10;;;;;;;2.67;100.00;95736.44;5112208;28;20282;-85
2023/01/24 10:48:10;;;;;;;0.88;0.88;;;;;;;2.77;100.00;95737.38;5100012;28;20210;-86
2023/01/24 10:50:43;;;;;;;2.20;0.98;;;;;;;2.56;100.00;95729.38;5105497;28;20206;-84
2023/01/24 10:53:23;;;;;;;2.78;1.23;;;;;;;2.66;100.00;95738.31;5108184;28;20210;-81
2023/01/24 10:56:02;;;;;;;1.40;1.08;;;;;;;2.67;100.00;95731.91;5112655;28;20208;-84
2023/01/24 10:58:34;;;;;;;1.25;0.80;;;;;;;2.79;100.00;95729.09;5114616;28;20706;-86
2023/01/24 11:01:06;;;;;;;1.55;1.13;;;;;;;2.62;100.00;95731.84;5112474;28;20258;-84
2023/01/24 11:03:35;;;;;;;0.60;0.60;;;;;;;2.73;100.00;95733.56;5112302;28;20312;-82
2023/01/24 11:06:03;;;;;;;0.75;0.70;;;;;;;2.76;100.00;95727.72;5113600;28;20337;-84
2023/01/24 11:08:34;;;;;;;1.85;1.10;;;;;;;2.64;100.00;95732.41;5111976;28;20610;-83
2023/01/24 11:11:04;;;;;;;0.70;0.70;;;;;;;2.61;100.00;95738.25;5111493;28;21275;-85
2023/01/24 11:13:36;;;;;;;1.80;0.82;;;;;;;2.50;100.00;95728.50;5112581;28;20902;-83
2023/01/24 11:16:06;;;;;;;5.18;0.90;;;;;;;2.42;100.00;95724.41;5112285;28;20201;-82
2023/01/24 11:18:34;;;;;;;0.63;0.63;;;;;;;2.24;100.00;95731.91;5111704;28;20213;-84
2023/01/24 11:21:13;;;;;;;1.73;1.10;;;;;;;2.13;100.00;95726.44;5111600;28;20587;-86
2023/01/24 11:23:40;;;;;;;2.17;1.20;;;;;;;2.07;100.00;95722.06;5110991;28;20201;-82
2023/01/24 11:26:26;;;;;;;0.93;0.88;;;;;;;2.17;100.00;95715.25;5110967;28;20580;-82
2023/01/24 11:28:58;;;;;;;1.33;0.73;;;;;;;2.14;100.00;95704.00;5111838;28;20262;-82
2023/01/24 11:31:31;;;;;;;1.17;0.70;;;;;;;2.29;100.00;95715.94;5111816;28;20209;-82
2023/01/24 11:34:36;;;;;;;1.85;1.20;;;;;;;2.32;100.00;95720.81;5111387;28;20205;-83
2023/01/24 11:37:13;;;;;;;0.77;0.60;;;;;;;2.23;100.00;95714.25;5111041;28;20681;-82
2023/01/24 11:39:48;;;;;;;1.40;1.23;;;;;;;2.13;100.00;95707.72;5111225;28;20221;-83
2023/01/24 11:42:26;;;;;;;1.70;1.60;;;;;;;2.06;100.00;95709.75;5110762;28;20713;-86
2023/01/24 11:45:03;;;;;;;1.83;1.40;;;;;;;2.16;100.00;95713.66;5111625;28;20713;-83
2023/01/24 11:47:34;;;;;;;0.55;0.52;;;;;;;2.37;100.00;95715.50;5111664;28;20907;-84
2023/01/24 11:50:27;;;;;;;1.80;1.40;;;;;;;2.27;100.00;95702.00;5111718;28;20731;-86
2023/01/24 11:53:12;;;;;;;2.20;1.05;;;;;;;2.26;100.00;95703.06;5108769;28;20656;-80
2023/01/24 11:55:49;;;;;;;2.15;1.27;;;;;;;2.36;100.00;95705.84;5111868;28;20202;-82
2023/01/24 11:58:38;;;;;;;0.98;0.88;;;;;;;2.40;100.00;95698.97;5110080;28;20668;-83
2023/01/24 12:01:12;;;;;;;4.25;1.98;;;;;;;2.45;100.00;95701.72;5110664;28;20197;-83
2023/01/24 12:04:00;;;;;;;3.13;1.85;;;;;;;2.46;100.00;95703.31;5110387;28;20201;-84
2023/01/24 12:06:37;;;;;;;1.13;0.90;;;;;;;2.50;100.00;95704.44;5111221;28;20233;-85
2023/01/24 12:09:14;;;;;;;1.17;1.00;;;;;;;2.36;100.00;95708.53;5110680;28;20194;-79
2023/01/24 12:11:49;;;;;;;1.83;1.13;;;;;;;2.45;100.00;95707.06;5097725;28;20197;-83
2023/01/24 12:14:50;;;;;;;1.52;1.13;;;;;;;2.50;100.00;95704.44;5111416;28;20205;-85
2023/01/24 12:17:31;;;;;;;0.80;0.80;;;;;;;2.46;100.00;95706.78;5097959;28;20200;-81
2023/01/24 12:20:14;;;;;;;0.88;0.77;;;;;;;2.43;100.00;95709.97;5111739;28;20201;-83
2023/01/24 12:22:42;;;;;;;1.15;0.80;;;;;;;2.50;100.00;95705.22;5112407;28;20206;-82
2023/01/24 12:25:23;;;;;;;1.15;0.90;;;;;;;2.52;100.00;95707.66;5111786;28;20226;-83
2023/01/24 12:27:51;;;;;;;1.40;0.98;;;;;;;2.48;100.00;95707.34;5096385;28;20657;-82
2023/01/24 12:30:27;;;;;;;2.65;1.85;;;;;;;2.51;100.00;95706.03;5109656;28;20652;-84